createdAt,value
2023-03-07T00:01:40.443Z,-0.45
2023-03-07T00:04:09.073Z,-0.46
2023-03-07T00:06:39.761Z,-0.46
2023-03-07T00:09:08.460Z,-0.45
2023-03-07T00:11:41.595Z,-0.45
2023-03-07T00:14:10.394Z,-0.44
2023-03-07T00:16:39.240Z,-0.44
2023-03-07T00:19:08.381Z,-0.43
2023-03-07T00:21:37.738Z,-0.41
2023-03-07T00:24:07.351Z,-0.39
2023-03-07T00:26:40.195Z,-0.37
2023-03-07T00:29:09.605Z,-0.36
2023-03-07T00:31:58.209Z,-0.35
2023-03-07T00:34:26.668Z,-0.35
2023-03-07T00:36:55.286Z,-0.34
2023-03-07T00:39:28.187Z,-0.32
2023-03-07T00:41:56.793Z,-0.31
2023-03-07T00:44:27.354Z,-0.30
2023-03-07T00:46:56.619Z,-0.28
2023-03-07T00:49:25.682Z,-0.29
2023-03-07T00:51:54.960Z,-0.29
2023-03-07T00:54:23.876Z,-0.29
2023-03-07T00:56:53.949Z,-0.29
2023-03-07T00:59:23.832Z,-0.30
2023-03-07T01:01:52.890Z,-0.30
2023-03-07T01:04:23.126Z,-0.30
2023-03-07T01:06:53.070Z,-0.30
2023-03-07T01:09:24.023Z,-0.30
2023-03-07T01:11:54.114Z,-0.30
2023-03-07T01:14:24.271Z,-0.30
2023-03-07T01:16:53.160Z,-0.30
2023-03-07T01:19:23.267Z,-0.30
2023-03-07T01:21:58.625Z,-0.31
2023-03-07T01:24:27.406Z,-0.32
2023-03-07T01:26:56.534Z,-0.33
2023-03-07T01:29:25.992Z,-0.33
2023-03-07T01:31:55.093Z,-0.35
2023-03-07T01:34:24.421Z,-0.37
2023-03-07T01:36:54.303Z,-0.38
2023-03-07T01:39:23.227Z,-0.40
2023-03-07T01:42:11.801Z,-0.39
2023-03-07T01:45:01.925Z,-0.39
2023-03-07T01:47:41.142Z,-0.38
2023-03-07T01:50:12.788Z,-0.38
2023-03-07T01:52:49.545Z,-0.38
2023-03-07T01:55:19.592Z,-0.37
2023-03-07T01:57:51.958Z,-0.36
2023-03-07T02:00:30.970Z,-0.37
2023-03-07T02:03:06.467Z,-0.38
2023-03-07T02:05:57.544Z,-0.39
2023-03-07T02:08:31.622Z,-0.41
2023-03-07T02:11:01.295Z,-0.43
2023-03-07T02:13:30.484Z,-0.46
2023-03-07T02:16:00.311Z,-0.48
2023-03-07T02:18:31.282Z,-0.50
2023-03-07T02:21:05.538Z,-0.50
2023-03-07T02:23:38.380Z,-0.52
2023-03-07T02:26:32.709Z,-0.54
2023-03-07T02:29:02.693Z,-0.55
2023-03-07T02:31:32.313Z,-0.56
2023-03-07T02:34:02.121Z,-0.56
2023-03-07T02:36:35.253Z,-0.57
2023-03-07T02:39:14.938Z,-0.57
2023-03-07T02:41:45.284Z,-0.58
2023-03-07T02:44:20.920Z,-0.59
2023-03-07T02:46:49.809Z,-0.60
2023-03-07T02:49:20.014Z,-0.59
2023-03-07T02:51:48.796Z,-0.59
2023-03-07T02:54:17.328Z,-0.60
2023-03-07T02:56:45.997Z,-0.61
2023-03-07T02:59:14.420Z,-0.63
2023-03-07T03:01:43.558Z,-0.63
2023-03-07T03:04:12.294Z,-0.62
2023-03-07T03:06:41.400Z,-0.60
2023-03-07T03:09:11.757Z,-0.59
2023-03-07T03:11:40.741Z,-0.59
2023-03-07T03:14:11.229Z,-0.59
2023-03-07T03:16:41.529Z,-0.60
2023-03-07T03:19:12.137Z,-0.62
2023-03-07T03:21:42.338Z,-0.64
2023-03-07T03:24:11.087Z,-0.67
2023-03-07T03:26:41.782Z,-0.70
2023-03-07T03:29:10.836Z,-0.73
2023-03-07T03:31:39.554Z,-0.76
2023-03-07T03:34:09.794Z,-0.78
2023-03-07T03:36:39.393Z,-0.80
2023-03-07T03:39:11.251Z,-0.82
2023-03-07T03:41:46.056Z,-0.84
2023-03-07T03:44:15.370Z,-0.86
2023-03-07T03:46:43.912Z,-0.87
2023-03-07T03:49:13.840Z,-0.88
2023-03-07T03:51:46.103Z,-0.87
2023-03-07T03:54:15.299Z,-0.87
2023-03-07T03:56:44.637Z,-0.87
2023-03-07T03:59:13.218Z,-0.88
2023-03-07T04:01:42.464Z,-0.88
2023-03-07T04:04:11.458Z,-0.87
2023-03-07T04:06:40.586Z,-0.87
2023-03-07T04:09:12.669Z,-0.88
2023-03-07T04:11:45.593Z,-0.88
2023-03-07T04:14:14.984Z,-0.88
2023-03-07T04:16:45.087Z,-0.88
2023-03-07T04:19:14.361Z,-0.89
2023-03-07T04:21:44.746Z,-0.90
2023-03-07T04:24:19.900Z,-0.90
2023-03-07T04:26:49.002Z,-0.92
2023-03-07T04:29:17.524Z,-0.91
2023-03-07T04:31:53.001Z,-0.91
2023-03-07T04:34:21.883Z,-0.90
2023-03-07T04:36:50.754Z,-0.90
2023-03-07T04:39:20.106Z,-0.90
2023-03-07T04:41:48.900Z,-0.88
2023-03-07T04:44:21.421Z,-0.87
2023-03-07T04:46:50.094Z,-0.86
2023-03-07T04:49:19.515Z,-0.85
2023-03-07T04:51:48.373Z,-0.85
2023-03-07T04:54:21.984Z,-0.80
2023-03-07T04:56:51.762Z,-0.79
2023-03-07T04:59:21.469Z,-0.78
2023-03-07T05:01:50.814Z,-0.75
2023-03-07T05:04:19.799Z,-0.71
2023-03-07T05:06:49.102Z,-0.68
2023-03-07T05:09:18.192Z,-0.65
2023-03-07T05:11:47.244Z,-0.64
2023-03-07T05:14:16.341Z,-0.60
2023-03-07T05:16:45.173Z,-0.57
2023-03-07T05:19:13.733Z,-0.53
2023-03-07T05:22:03.487Z,-0.49
2023-03-07T05:24:41.047Z,-0.46
2023-03-07T05:27:11.312Z,-0.43
2023-03-07T05:29:40.056Z,-0.40
2023-03-07T05:32:08.754Z,-0.38
2023-03-07T05:34:40.812Z,-0.34
2023-03-07T05:37:10.329Z,-0.30
2023-03-07T05:39:39.417Z,-0.26
2023-03-07T05:42:08.124Z,-0.21
2023-03-07T05:44:38.213Z,-0.16
2023-03-07T05:47:07.420Z,-0.11
2023-03-07T05:49:37.063Z,-0.05
2023-03-07T05:52:06.137Z,-0.01
2023-03-07T05:54:34.974Z,0.04
2023-03-07T05:57:03.906Z,0.08
2023-03-07T05:59:32.731Z,0.14
2023-03-07T06:02:02.734Z,0.20
2023-03-07T06:04:32.224Z,0.28
2023-03-07T06:07:01.127Z,0.39
2023-03-07T06:09:31.093Z,0.54
2023-03-07T06:12:00.271Z,0.69
2023-03-07T06:14:38.130Z,0.80
2023-03-07T06:17:07.292Z,0.87
2023-03-07T06:19:36.234Z,0.88
2023-03-07T06:22:09.200Z,0.93
2023-03-07T06:24:38.938Z,1.01
2023-03-07T06:27:07.816Z,1.12
2023-03-07T06:29:37.098Z,1.20
2023-03-07T06:32:06.654Z,1.29
2023-03-07T06:34:35.777Z,1.38
2023-03-07T06:37:04.661Z,1.45
2023-03-07T06:39:34.532Z,1.51
2023-03-07T06:42:03.805Z,1.52
2023-03-07T06:44:32.372Z,1.53
2023-03-07T06:47:06.119Z,1.55
2023-03-07T06:49:36.393Z,1.61
2023-03-07T06:52:06.036Z,1.66
2023-03-07T06:54:40.427Z,1.67
2023-03-07T06:57:09.063Z,1.67
2023-03-07T06:59:38.337Z,1.69
2023-03-07T07:02:07.584Z,1.72
2023-03-07T07:04:36.701Z,1.75
2023-03-07T07:07:08.325Z,1.76
2023-03-07T07:09:38.192Z,1.78
2023-03-07T07:12:07.356Z,1.84
2023-03-07T07:14:43.282Z,1.90
2023-03-07T07:17:12.695Z,1.98
2023-03-07T07:19:41.416Z,2.07
2023-03-07T07:22:12.362Z,2.11
2023-03-07T07:24:41.955Z,2.16
2023-03-07T07:27:12.563Z,2.22
2023-03-07T07:29:41.932Z,2.34
2023-03-07T07:32:11.329Z,2.44
2023-03-07T07:34:40.490Z,2.48
2023-03-07T07:37:09.589Z,2.48
2023-03-07T07:39:43.247Z,2.49
2023-03-07T07:42:12.601Z,2.55
2023-03-07T07:44:51.523Z,2.59
2023-03-07T07:47:23.888Z,2.64
2023-03-07T07:49:53.270Z,2.71
2023-03-07T07:52:23.231Z,2.82
2023-03-07T07:54:52.731Z,2.93
2023-03-07T07:57:22.746Z,3.05
2023-03-07T07:59:52.145Z,3.22
2023-03-07T08:02:21.212Z,3.38
2023-03-07T08:04:50.417Z,3.52
2023-03-07T08:07:19.989Z,3.61
2023-03-07T08:09:49.010Z,3.68
2023-03-07T08:12:20.009Z,3.78
2023-03-07T08:14:48.893Z,3.92
2023-03-07T08:17:17.418Z,4.14
2023-03-07T08:19:50.520Z,4.29
2023-03-07T08:22:19.717Z,4.33
2023-03-07T08:24:51.829Z,4.38
2023-03-07T08:27:20.670Z,4.45
2023-03-07T08:29:50.420Z,4.44
2023-03-07T08:32:19.196Z,4.46
2023-03-07T08:34:48.802Z,4.53
2023-03-07T08:37:17.504Z,4.61
2023-03-07T08:39:46.184Z,4.64
2023-03-07T08:42:15.292Z,4.66
2023-03-07T08:44:44.130Z,4.71
2023-03-07T08:47:13.731Z,4.78
2023-03-07T08:49:42.813Z,4.87
2023-03-07T08:52:12.401Z,4.94
2023-03-07T08:54:41.493Z,4.98
2023-03-07T08:57:11.046Z,5.02
2023-03-07T08:59:40.313Z,5.08
2023-03-07T09:02:13.706Z,5.14
2023-03-07T09:04:42.463Z,5.18
2023-03-07T09:07:11.544Z,5.17
2023-03-07T09:09:42.513Z,5.21
2023-03-07T09:12:14.754Z,5.29
2023-03-07T09:14:44.096Z,5.39
2023-03-07T09:17:13.383Z,5.51
2023-03-07T09:19:43.533Z,5.58
2023-03-07T09:22:13.009Z,5.69
2023-03-07T09:24:48.560Z,5.79
2023-03-07T09:27:17.593Z,5.88
2023-03-07T09:29:47.483Z,5.98
2023-03-07T09:32:17.864Z,6.08
2023-03-07T09:34:47.864Z,6.14
2023-03-07T09:37:16.623Z,6.20
2023-03-07T09:39:45.537Z,6.22
2023-03-07T09:42:24.618Z,6.28
2023-03-07T09:45:08.733Z,6.40
2023-03-07T09:47:59.366Z,6.49
2023-03-07T09:50:42.004Z,6.54
2023-03-07T09:53:18.293Z,6.62
2023-03-07T09:55:47.579Z,6.66
2023-03-07T09:58:21.885Z,6.63
2023-03-07T10:00:55.193Z,6.61
2023-03-07T10:03:42.088Z,6.58
2023-03-07T10:06:33.790Z,6.59
2023-03-07T10:09:07.676Z,6.67
2023-03-07T10:12:08.356Z,6.78
2023-03-07T10:15:03.795Z,6.91
2023-03-07T10:17:59.498Z,7.00
2023-03-07T10:20:48.791Z,7.10
2023-03-07T10:23:46.212Z,7.26
2023-03-07T10:26:18.717Z,7.42
2023-03-07T10:28:47.037Z,7.52
2023-03-07T10:31:30.047Z,7.55
2023-03-07T10:33:59.489Z,7.62
2023-03-07T10:36:43.740Z,7.68
2023-03-07T10:39:39.743Z,7.75
2023-03-07T10:42:15.408Z,7.80
2023-03-07T10:44:46.257Z,7.86
2023-03-07T10:47:24.876Z,7.99
2023-03-07T10:50:00.691Z,8.04
2023-03-07T10:52:33.039Z,8.04
2023-03-07T10:55:40.019Z,8.05
2023-03-07T10:58:15.284Z,8.08
2023-03-07T11:00:44.815Z,8.08
2023-03-07T11:03:24.437Z,8.04
2023-03-07T11:05:55.092Z,8.01
2023-03-07T11:08:35.662Z,7.95
2023-03-07T11:11:05.086Z,7.92
2023-03-07T11:13:36.783Z,7.89
2023-03-07T11:16:21.953Z,7.83
2023-03-07T11:18:57.755Z,7.76
2023-03-07T11:21:30.586Z,7.75
2023-03-07T11:24:07.016Z,7.77
2023-03-07T11:26:40.501Z,7.81
2023-03-07T11:29:13.995Z,7.86
2023-03-07T11:31:49.355Z,7.94
2023-03-07T11:34:42.566Z,8.03
2023-03-07T11:37:30.336Z,8.15
2023-03-07T11:40:29.131Z,8.24
2023-03-07T11:43:37.963Z,8.28
2023-03-07T11:46:13.546Z,8.34
2023-03-07T11:49:02.435Z,8.34
2023-03-07T11:51:50.357Z,8.30
2023-03-07T11:54:43.419Z,8.24
2023-03-07T11:57:43.866Z,8.19
2023-03-07T12:00:35.202Z,8.13
2023-03-07T12:03:25.836Z,8.08
2023-03-07T12:06:15.576Z,8.06
2023-03-07T12:08:59.225Z,8.03
2023-03-07T12:11:32.757Z,8.04
2023-03-07T12:14:07.377Z,8.06
2023-03-07T12:17:08.444Z,8.10
2023-03-07T12:19:54.576Z,8.14
2023-03-07T12:22:41.144Z,8.17
2023-03-07T12:25:29.132Z,8.21
2023-03-07T12:28:27.716Z,8.21
2023-03-07T12:31:00.817Z,8.20
2023-03-07T12:33:54.534Z,8.21
2023-03-07T12:36:48.529Z,8.22
2023-03-07T12:39:44.821Z,8.22
2023-03-07T12:42:39.079Z,8.20
2023-03-07T12:45:07.773Z,8.14
2023-03-07T12:47:40.103Z,8.08
2023-03-07T12:50:41.700Z,8.01
2023-03-07T12:53:34.086Z,7.94
2023-03-07T12:56:18.453Z,7.89
2023-03-07T12:58:55.047Z,7.86
2023-03-07T13:01:30.479Z,7.86
2023-03-07T13:04:18.924Z,7.86
2023-03-07T13:06:47.619Z,7.85
2023-03-07T13:09:27.551Z,7.86
2023-03-07T13:12:16.797Z,7.86
2023-03-07T13:14:51.713Z,7.86
2023-03-07T13:17:27.061Z,7.87
2023-03-07T13:20:03.682Z,7.87
2023-03-07T13:22:36.913Z,7.85
2023-03-07T13:25:22.592Z,7.78
2023-03-07T13:27:54.462Z,7.64
2023-03-07T13:30:24.590Z,7.54
2023-03-07T13:32:56.411Z,7.45
2023-03-07T13:35:30.771Z,7.37
2023-03-07T13:38:24.816Z,7.30
2023-03-07T13:41:01.255Z,7.22
2023-03-07T13:43:30.880Z,7.17
2023-03-07T13:46:04.575Z,7.14
2023-03-07T13:48:36.790Z,7.13
2023-03-07T13:51:09.568Z,7.10
2023-03-07T13:53:53.481Z,7.08
2023-03-07T13:56:28.260Z,7.06
2023-03-07T13:59:12.270Z,7.05
2023-03-07T14:02:01.470Z,7.03
2023-03-07T14:04:46.877Z,7.03
2023-03-07T14:07:20.029Z,7.02
2023-03-07T14:09:56.732Z,7.00
2023-03-07T14:13:01.229Z,6.97
2023-03-07T14:15:40.130Z,6.93
2023-03-07T14:18:19.836Z,6.88
2023-03-07T14:21:18.343Z,6.83
2023-03-07T14:23:56.481Z,6.76
2023-03-07T14:26:33.799Z,6.70
2023-03-07T14:29:26.789Z,6.67
2023-03-07T14:31:57.387Z,6.66
2023-03-07T14:34:34.528Z,6.66
2023-03-07T14:37:05.346Z,6.67
2023-03-07T14:39:56.084Z,6.67
2023-03-07T14:42:56.912Z,6.64
2023-03-07T14:45:42.029Z,6.52
2023-03-07T14:48:20.302Z,6.39
2023-03-07T14:50:49.641Z,6.36
2023-03-07T14:53:23.645Z,6.34
2023-03-07T14:55:54.686Z,6.28
2023-03-07T14:58:28.831Z,6.18
2023-03-07T15:01:11.905Z,6.07
2023-03-07T15:03:48.781Z,5.96
2023-03-07T15:06:23.380Z,5.87
2023-03-07T15:08:52.450Z,5.79
2023-03-07T15:11:36.345Z,5.73
2023-03-07T15:14:07.703Z,5.70
2023-03-07T15:16:51.937Z,5.64
2023-03-07T15:19:23.872Z,5.57
2023-03-07T15:21:57.153Z,5.50
2023-03-07T15:24:39.195Z,5.46
2023-03-07T15:27:11.064Z,5.41
2023-03-07T15:29:46.411Z,5.37
2023-03-07T15:32:36.210Z,5.31
2023-03-07T15:35:39.824Z,5.22
2023-03-07T15:38:36.644Z,5.16
2023-03-07T15:41:25.249Z,5.12
2023-03-07T15:44:04.952Z,5.08
2023-03-07T15:46:33.947Z,5.05
2023-03-07T15:49:02.953Z,4.99
2023-03-07T15:51:36.833Z,4.94
2023-03-07T15:54:29.237Z,4.88
2023-03-07T15:56:59.914Z,4.78
2023-03-07T15:59:29.577Z,4.72
2023-03-07T16:01:58.070Z,4.67
2023-03-07T16:04:31.138Z,4.63
2023-03-07T16:06:59.843Z,4.63
2023-03-07T16:09:28.622Z,4.62
2023-03-07T16:11:57.319Z,4.59
2023-03-07T16:14:29.345Z,4.57
2023-03-07T16:17:03.873Z,4.56
2023-03-07T16:19:32.908Z,4.54
2023-03-07T16:22:01.652Z,4.52
2023-03-07T16:24:30.745Z,4.50
2023-03-07T16:26:59.812Z,4.49
2023-03-07T16:29:28.668Z,4.49
2023-03-07T16:32:01.562Z,4.47
2023-03-07T16:34:35.682Z,4.44
2023-03-07T16:37:04.798Z,4.42
2023-03-07T16:39:34.089Z,4.42
2023-03-07T16:42:03.397Z,4.42
2023-03-07T16:44:32.250Z,4.42
2023-03-07T16:47:06.129Z,4.42
2023-03-07T16:49:35.844Z,4.40
2023-03-07T16:52:12.249Z,4.36
2023-03-07T16:54:41.384Z,4.35
2023-03-07T16:57:14.498Z,4.33
2023-03-07T16:59:45.480Z,4.30
2023-03-07T17:02:21.445Z,4.29
2023-03-07T17:04:50.724Z,4.26
2023-03-07T17:07:22.179Z,4.24
2023-03-07T17:09:52.039Z,4.22
2023-03-07T17:12:24.788Z,4.21
2023-03-07T17:14:59.416Z,4.20
2023-03-07T17:17:33.737Z,4.21
2023-03-07T17:20:06.322Z,4.21
2023-03-07T17:22:35.741Z,4.21
2023-03-07T17:25:05.944Z,4.21
2023-03-07T17:27:35.003Z,4.22
2023-03-07T17:30:05.756Z,4.22
2023-03-07T17:32:34.738Z,4.21
2023-03-07T17:35:03.809Z,4.20
2023-03-07T17:37:32.999Z,4.20
2023-03-07T17:40:10.358Z,4.20
2023-03-07T17:42:42.610Z,4.20
2023-03-07T17:45:12.845Z,4.21
2023-03-07T17:47:41.560Z,4.22
2023-03-07T17:50:11.240Z,4.23
2023-03-07T17:52:40.278Z,4.22
2023-03-07T17:55:10.206Z,4.23
2023-03-07T17:57:39.895Z,4.24
2023-03-07T18:00:13.357Z,4.27
2023-03-07T18:02:45.759Z,4.27
2023-03-07T18:05:14.719Z,4.28
2023-03-07T18:07:43.621Z,4.28
2023-03-07T18:10:15.970Z,4.26
2023-03-07T18:12:46.416Z,4.25
2023-03-07T18:15:16.589Z,4.23
2023-03-07T18:17:49.147Z,4.21
2023-03-07T18:20:22.947Z,4.18
2023-03-07T18:22:51.903Z,4.15
2023-03-07T18:25:20.972Z,4.11
2023-03-07T18:27:50.272Z,4.08
2023-03-07T18:30:20.254Z,4.06
2023-03-07T18:32:55.587Z,4.04
2023-03-07T18:35:24.507Z,4.01
2023-03-07T18:37:53.158Z,3.97
2023-03-07T18:40:23.086Z,3.95
2023-03-07T18:42:52.566Z,3.93
2023-03-07T18:45:21.304Z,3.90
2023-03-07T18:47:52.211Z,3.87
2023-03-07T18:50:21.065Z,3.85
2023-03-07T18:52:54.058Z,3.80
2023-03-07T18:55:23.372Z,3.76
2023-03-07T18:57:52.237Z,3.71
2023-03-07T19:00:21.692Z,3.66
2023-03-07T19:02:50.583Z,3.59
2023-03-07T19:05:20.497Z,3.48
2023-03-07T19:07:49.992Z,3.33
2023-03-07T19:10:19.097Z,3.18
2023-03-07T19:12:50.067Z,3.04
2023-03-07T19:15:19.235Z,2.94
2023-03-07T19:17:49.795Z,2.86
2023-03-07T19:20:18.656Z,2.81
2023-03-07T19:22:47.551Z,2.73
2023-03-07T19:25:21.739Z,2.65
2023-03-07T19:27:50.512Z,2.57
2023-03-07T19:30:20.981Z,2.51
2023-03-07T19:32:49.991Z,2.43
2023-03-07T19:35:19.322Z,2.38
2023-03-07T19:37:48.149Z,2.30
2023-03-07T19:40:16.972Z,2.25
2023-03-07T19:42:45.709Z,2.19
2023-03-07T19:45:20.236Z,2.12
2023-03-07T19:47:52.267Z,2.05
2023-03-07T19:50:21.701Z,1.99
2023-03-07T19:52:51.234Z,1.92
2023-03-07T19:55:20.496Z,1.85
2023-03-07T19:57:49.780Z,1.81
2023-03-07T20:00:20.624Z,1.77
2023-03-07T20:02:49.459Z,1.74
2023-03-07T20:05:18.860Z,1.70
2023-03-07T20:07:50.209Z,1.69
2023-03-07T20:10:19.642Z,1.68
2023-03-07T20:12:49.301Z,1.67
2023-03-07T20:15:19.250Z,1.67
2023-03-07T20:17:50.376Z,1.70
2023-03-07T20:20:19.299Z,1.70
2023-03-07T20:22:57.315Z,1.73
2023-03-07T20:25:30.037Z,1.74
2023-03-07T20:27:59.856Z,1.76
2023-03-07T20:30:32.430Z,1.80
2023-03-07T20:33:05.027Z,1.82
2023-03-07T20:35:34.800Z,1.83
2023-03-07T20:38:03.926Z,1.85
2023-03-07T20:40:33.211Z,1.85
2023-03-07T20:43:03.399Z,1.85
2023-03-07T20:45:32.855Z,1.84
2023-03-07T20:48:02.843Z,1.83
2023-03-07T20:50:31.950Z,1.82
2023-03-07T20:53:01.734Z,1.80
2023-03-07T20:55:31.124Z,1.79
2023-03-07T20:58:00.075Z,1.79
2023-03-07T21:00:29.000Z,1.79
2023-03-07T21:03:05.688Z,1.82
2023-03-07T21:05:36.327Z,1.89
2023-03-07T21:08:05.875Z,1.94
2023-03-07T21:10:34.697Z,2.00
2023-03-07T21:13:05.548Z,2.07
2023-03-07T21:15:36.005Z,2.13
2023-03-07T21:18:05.202Z,2.18
2023-03-07T21:20:34.407Z,2.23
2023-03-07T21:23:23.070Z,2.28
2023-03-07T21:26:06.644Z,2.33
2023-03-07T21:28:35.947Z,2.38
2023-03-07T21:31:32.082Z,2.42
2023-03-07T21:34:05.201Z,2.41
2023-03-07T21:36:34.140Z,2.39
2023-03-07T21:39:05.520Z,2.37
2023-03-07T21:41:34.717Z,2.41
2023-03-07T21:44:04.835Z,2.42
2023-03-07T21:46:34.200Z,2.42
2023-03-07T21:49:03.136Z,2.39
2023-03-07T21:51:32.191Z,2.36
2023-03-07T21:54:01.052Z,2.35
2023-03-07T21:56:30.012Z,2.35
2023-03-07T21:58:58.829Z,2.34
2023-03-07T22:01:29.419Z,2.34
2023-03-07T22:04:02.030Z,2.36
2023-03-07T22:06:31.254Z,2.36
2023-03-07T22:09:01.432Z,2.35
2023-03-07T22:11:30.104Z,2.35
2023-03-07T22:13:59.826Z,2.31
2023-03-07T22:16:29.826Z,2.23
2023-03-07T22:18:58.684Z,2.15
2023-03-07T22:21:27.965Z,2.08
2023-03-07T22:23:58.208Z,2.04
2023-03-07T22:26:28.016Z,1.97
2023-03-07T22:28:57.059Z,1.90
2023-03-07T22:31:26.111Z,1.83
2023-03-07T22:33:55.115Z,1.76
2023-03-07T22:36:25.085Z,1.70
2023-03-07T22:38:55.430Z,1.64
2023-03-07T22:41:24.595Z,1.59
2023-03-07T22:43:53.842Z,1.55
2023-03-07T22:46:22.774Z,1.52
2023-03-07T22:48:53.638Z,1.49
2023-03-07T22:51:23.993Z,1.44
2023-03-07T22:53:54.002Z,1.38
2023-03-07T22:56:24.716Z,1.33
2023-03-07T22:58:59.297Z,1.27
2023-03-07T23:01:29.064Z,1.22
2023-03-07T23:03:58.638Z,1.19
2023-03-07T23:06:29.539Z,1.16
2023-03-07T23:08:59.917Z,1.13
2023-03-07T23:11:32.959Z,1.09
2023-03-07T23:14:01.906Z,1.04
2023-03-07T23:16:31.293Z,0.99
2023-03-07T23:19:03.816Z,0.93
2023-03-07T23:21:33.173Z,0.87
2023-03-07T23:24:05.035Z,0.82
2023-03-07T23:26:35.969Z,0.78
2023-03-07T23:29:07.344Z,0.72
2023-03-07T23:31:37.690Z,0.64
2023-03-07T23:34:08.788Z,0.59
2023-03-07T23:36:43.183Z,0.53
2023-03-07T23:39:12.004Z,0.48
2023-03-07T23:41:40.166Z,0.44
2023-03-07T23:44:10.209Z,0.37
2023-03-07T23:46:38.898Z,0.30
2023-03-07T23:49:10.983Z,0.25
2023-03-07T23:51:40.088Z,0.20
2023-03-07T23:54:09.228Z,0.16
2023-03-07T23:56:37.862Z,0.14
2023-03-07T23:59:06.009Z,0.12
